Time;durP1;ratioP1;P1;durP2;ratioP2;P2;SDS_P1;SDS_P2;PMS_P1;PMS_P2;Temp;Humidity;BMP_temperature;BMP_pressure;BME280_temperature;BME280_humidity;BME280_pressure;Samples;Min_cycle;Max_cycle;Signal;HPM_P1;HPM_P2
2021/05/02 00:00:47;;;;;;;18.08;12.05;;;7.80;99.90;;;;;;5094027;28;20201;-70
2021/05/02 00:03:16;;;;;;;23.60;14.63;;;7.90;99.90;;;;;;5094011;28;20187;-71
2021/05/02 00:05:44;;;;;;;21.85;14.00;;;7.80;99.90;;;;;;5075923;28;20199;-70
2021/05/02 00:08:11;;;;;;;24.30;15.68;;;7.70;99.90;;;;;;5094381;28;20211;-72
2021/05/02 00:10:38;;;;;;;18.50;12.98;;;7.80;99.90;;;;;;5094268;28;20550;-70
2021/05/02 00:13:06;;;;;;;25.98;15.95;;;7.70;99.90;;;;;;5093233;28;20172;-69
2021/05/02 00:15:34;;;;;;;25.27;15.40;;;7.70;99.90;;;;;;5093821;28;20187;-69
2021/05/02 00:18:02;;;;;;;32.28;16.10;;;7.80;99.90;;;;;;5093603;28;20214;-71
2021/05/02 00:20:30;;;;;;;22.95;14.27;;;7.70;99.90;;;;;;5093345;28;20183;-69
2021/05/02 00:23:02;;;;;;;21.63;15.73;;;7.70;99.90;;;;;;5093518;28;20656;-70
2021/05/02 00:25:31;;;;;;;30.45;17.17;;;7.70;99.90;;;;;;5093459;28;20219;-70
2021/05/02 00:27:59;;;;;;;29.58;16.60;;;7.70;99.90;;;;;;5076290;28;20544;-70
2021/05/02 00:30:28;;;;;;;29.20;17.98;;;7.70;99.90;;;;;;5076426;28;20293;-70
2021/05/02 00:32:56;;;;;;;23.00;16.90;;;7.70;99.90;;;;;;5094360;28;20252;-71
2021/05/02 00:35:25;;;;;;;21.27;14.35;;;7.70;99.90;;;;;;5077326;28;20187;-70
2021/05/02 00:37:53;;;;;;;21.10;14.60;;;7.70;99.90;;;;;;5106672;22;20264;-67
2021/05/02 00:40:29;;;;;;;20.58;13.95;;;7.60;99.90;;;;;;5095562;28;20184;-68
2021/05/02 00:42:59;;;;;;;28.52;15.50;;;7.60;99.90;;;;;;5086393;28;20198;-68
2021/05/02 00:45:35;;;;;;;23.15;15.85;;;7.70;99.90;;;;;;5092953;28;20584;-67
2021/05/02 00:48:05;;;;;;;22.35;14.90;;;7.60;99.90;;;;;;5093557;28;20226;-67
2021/05/02 00:50:38;;;;;;;19.38;13.50;;;7.50;99.90;;;;;;5093675;28;20632;-67
2021/05/02 00:53:23;;;;;;;23.30;17.42;;;7.40;99.90;;;;;;5093350;28;20237;-68
2021/05/02 00:55:55;;;;;;;25.75;16.80;;;7.40;99.90;;;;;;5094026;28;20175;-67
2021/05/02 00:58:32;;;;;;;24.95;16.15;;;7.30;99.90;;;;;;5093503;28;20552;-68
2021/05/02 01:01:02;;;;;;;27.50;17.92;;;7.30;99.90;;;;;;5093592;28;20218;-68
2021/05/02 01:03:33;;;;;;;29.83;14.95;;;7.30;99.90;;;;;;5093918;28;20183;-68
2021/05/02 01:06:08;;;;;;;24.67;15.82;;;7.30;99.90;;;;;;5094258;28;20215;-69
2021/05/02 01:08:37;;;;;;;23.45;15.27;;;7.30;99.90;;;;;;5094138;28;20211;-67
2021/05/02 01:11:05;;;;;;;31.73;17.52;;;7.20;99.90;;;;;;5094808;28;20199;-68
2021/05/02 01:13:37;;;;;;;26.15;15.75;;;7.30;99.90;;;;;;5094203;28;20195;-68
2021/05/02 01:16:07;;;;;;;24.95;14.00;;;7.30;99.90;;;;;;5093942;28;20251;-67
2021/05/02 01:18:37;;;;;;;29.70;17.25;;;7.30;99.90;;;;;;5093709;28;20264;-68
2021/05/02 01:21:06;;;;;;;20.52;15.05;;;7.30;99.90;;;;;;5075421;28;20263;-67
2021/05/02 01:23:35;;;;;;;25.15;14.85;;;7.40;99.90;;;;;;5093958;28;20199;-68
2021/05/02 01:26:03;;;;;;;25.08;14.95;;;7.40;99.90;;;;;;5094247;28;20187;-69
2021/05/02 01:28:30;;;;;;;23.65;16.20;;;7.30;99.90;;;;;;5096966;28;20703;-67
2021/05/02 01:30:58;;;;;;;26.88;14.80;;;7.30;99.90;;;;;;5097831;28;20250;-68
2021/05/02 01:33:26;;;;;;;30.02;17.63;;;7.30;99.90;;;;;;5099522;28;20171;-68
2021/05/02 01:35:55;;;;;;;23.70;15.95;;;7.20;99.90;;;;;;5103577;28;20281;-67
2021/05/02 01:38:24;;;;;;;28.50;17.25;;;7.30;99.90;;;;;;5102605;28;20211;-68
2021/05/02 01:40:54;;;;;;;27.45;17.77;;;7.30;99.90;;;;;;5099741;28;20191;-68
2021/05/02 01:43:22;;;;;;;30.95;16.52;;;7.30;99.90;;;;;;5099855;28;20335;-68
2021/05/02 01:45:49;;;;;;;24.77;16.25;;;7.40;99.90;;;;;;5099484;28;20241;-67
2021/05/02 01:48:18;;;;;;;28.65;15.82;;;7.40;99.90;;;;;;5097960;28;20211;-68
2021/05/02 01:50:49;;;;;;;25.30;13.88;;;7.50;99.90;;;;;;5093009;28;20219;-67
2021/05/02 01:53:16;;;;;;;23.95;14.95;;;7.60;99.90;;;;;;5092637;28;20182;-69
2021/05/02 01:55:46;;;;;;;30.67;18.52;;;7.50;99.90;;;;;;5092579;28;20187;-67
2021/05/02 01:58:14;;;;;;;24.95;16.35;;;7.50;99.90;;;;;;5092643;28;20282;-68
2021/05/02 02:00:50;;;;;;;21.98;15.18;;;7.40;99.90;;;;;;5092759;28;20175;-67
2021/05/02 02:03:18;;;;;;;25.23;14.57;;;7.40;99.90;;;;;;5092022;28;20707;-68
2021/05/02 02:05:46;;;;;;;19.52;14.27;;;7.40;99.90;;;;;;5092044;28;20211;-68
2021/05/02 02:08:14;;;;;;;31.75;16.92;;;7.50;99.90;;;;;;5092088;28;20211;-68
2021/05/02 02:10:42;;;;;;;21.55;14.88;;;7.50;99.90;;;;;;5074387;28;20253;-68
2021/05/02 02:13:11;;;;;;;32.08;17.25;;;7.50;99.90;;;;;;5092059;28;20194;-69
2021/05/02 02:15:40;;;;;;;24.23;16.70;;;7.60;99.90;;;;;;5091971;28;20190;-68
2021/05/02 02:18:09;;;;;;;23.10;16.25;;;7.50;99.90;;;;;;5073630;28;20234;-67
2021/05/02 02:20:38;;;;;;;23.58;15.10;;;7.50;99.90;;;;;;5092261;28;20512;-67
2021/05/02 02:23:12;;;;;;;31.50;15.63;;;7.50;99.90;;;;;;5092142;28;20667;-68
2021/05/02 02:25:45;;;;;;;25.15;16.15;;;7.50;99.90;;;;;;5092082;28;20690;-67
2021/05/02 02:28:15;;;;;;;27.92;16.25;;;7.50;99.90;;;;;;5073729;28;20243;-67
2021/05/02 02:30:46;;;;;;;24.10;15.45;;;7.50;99.90;;;;;;5091882;28;20176;-67
2021/05/02 02:33:14;;;;;;;22.00;13.20;;;7.40;99.90;;;;;;5091602;28;20262;-66
2021/05/02 02:35:47;;;;;;;22.13;13.90;;;7.30;99.90;;;;;;5092041;28;20698;-67
2021/05/02 02:38:17;;;;;;;25.73;15.95;;;7.20;99.90;;;;;;5073117;28;20313;-68
2021/05/02 02:40:48;;;;;;;23.88;15.18;;;7.10;99.90;;;;;;5091720;28;20254;-68
2021/05/02 02:43:21;;;;;;;20.75;13.60;;;7.10;99.90;;;;;;5091555;28;20224;-67
2021/05/02 02:45:53;;;;;;;27.60;14.95;;;7.10;99.90;;;;;;5091633;28;20192;-67
2021/05/02 02:48:23;;;;;;;21.80;14.88;;;7.10;99.90;;;;;;5091682;28;20243;-66
2021/05/02 02:50:52;;;;;;;23.50;15.13;;;7.10;99.90;;;;;;5091787;28;20254;-67
2021/05/02 02:53:21;;;;;;;21.90;15.10;;;7.00;99.90;;;;;;5091683;28;20183;-66
2021/05/02 02:56:01;;;;;;;21.55;13.50;;;7.00;99.90;;;;;;5091594;28;20183;-67
2021/05/02 02:58:34;;;;;;;30.63;16.55;;;6.90;99.90;;;;;;5091831;28;20578;-67
2021/05/02 03:01:05;;;;;;;22.67;14.85;;;6.90;99.90;;;;;;5091501;28;20180;-67
2021/05/02 03:03:33;;;;;;;24.58;13.80;;;6.90;99.90;;;;;;5092349;28;20191;-68
2021/05/02 03:06:01;;;;;;;24.45;13.95;;;6.90;99.90;;;;;;5092080;28;20203;-68
2021/05/02 03:08:30;;;;;;;22.35;15.05;;;6.90;99.90;;;;;;5091483;28;20203;-68
2021/05/02 03:10:58;;;;;;;26.63;17.20;;;6.90;99.90;;;;;;5091540;28;20195;-67
2021/05/02 03:13:26;;;;;;;28.23;16.98;;;7.00;99.90;;;;;;5091329;28;20241;-67
2021/05/02 03:15:53;;;;;;;22.90;13.63;;;6.90;99.90;;;;;;5095072;28;20270;-67
2021/05/02 03:18:25;;;;;;;16.63;12.38;;;6.90;99.90;;;;;;5095810;28;20290;-68
2021/05/02 03:20:58;;;;;;;27.00;13.40;;;6.80;99.90;;;;;;5095931;28;20623;-68
2021/05/02 03:23:31;;;;;;;21.45;14.35;;;6.80;99.90;;;;;;5095672;28;20201;-68
2021/05/02 03:26:01;;;;;;;31.17;15.95;;;6.90;99.90;;;;;;5095880;28;20191;-68
2021/05/02 03:28:33;;;;;;;24.45;16.48;;;6.90;99.90;;;;;;5095679;28;20209;-68
2021/05/02 03:31:03;;;;;;;24.17;18.00;;;6.90;99.90;;;;;;5095650;28;20214;-68
2021/05/02 03:33:35;;;;;;;25.38;16.90;;;7.00;99.90;;;;;;5095705;28;20254;-68
2021/05/02 03:36:09;;;;;;;26.25;15.48;;;7.00;99.90;;;;;;5095843;28;20179;-68
2021/05/02 03:38:45;;;;;;;26.50;16.02;;;7.00;99.90;;;;;;5095448;28;20219;-68
2021/05/02 03:41:13;;;;;;;26.15;15.70;;;6.90;99.90;;;;;;5095526;28;20628;-68
2021/05/02 03:43:40;;;;;;;23.30;13.50;;;6.90;99.90;;;;;;5095406;28;20176;-68
2021/05/02 03:46:23;;;;;;;29.48;15.52;;;6.80;99.90;;;;;;5095446;28;20296;-68
2021/05/02 03:48:54;;;;;;;20.55;15.02;;;6.90;99.90;;;;;;5095447;28;20214;-67
2021/05/02 03:51:22;;;;;;;23.67;15.98;;;6.90;99.90;;;;;;5095623;28;20565;-68
2021/05/02 03:53:50;;;;;;;30.05;16.45;;;6.90;99.90;;;;;;5095352;28;20620;-67
2021/05/02 03:56:31;;;;;;;24.50;15.27;;;6.90;99.90;;;;;;5094945;28;20187;-69
2021/05/02 03:59:12;;;;;;;25.73;16.60;;;7.00;99.90;;;;;;5095419;28;20233;-67
2021/05/02 04:01:49;;;;;;;31.70;17.52;;;7.00;99.90;;;;;;5095360;28;20259;-68
2021/05/02 04:04:19;;;;;;;28.95;16.20;;;7.00;99.90;;;;;;5095183;28;20629;-68
2021/05/02 04:06:46;;;;;;;26.58;15.52;;;7.00;99.90;;;;;;5094752;28;20237;-67
2021/05/02 04:09:14;;;;;;;23.23;17.13;;;7.00;99.90;;;;;;5094587;28;20207;-68
2021/05/02 04:11:43;;;;;;;22.83;15.35;;;7.00;99.90;;;;;;5094493;28;20533;-68
2021/05/02 04:14:12;;;;;;;27.25;13.88;;;7.00;99.90;;;;;;5094478;28;20182;-67
2021/05/02 04:16:40;;;;;;;28.20;15.75;;;7.00;99.90;;;;;;5094501;28;20237;-67
2021/05/02 04:19:08;;;;;;;29.73;16.55;;;6.90;99.90;;;;;;5094280;28;20299;-67
2021/05/02 04:21:38;;;;;;;25.42;17.70;;;6.90;99.90;;;;;;5076222;28;20199;-67
2021/05/02 04:24:06;;;;;;;25.88;15.45;;;7.00;99.90;;;;;;5094305;28;20516;-67
2021/05/02 04:26:33;;;;;;;24.23;15.80;;;7.10;99.90;;;;;;5075689;28;20203;-67
2021/05/02 04:29:00;;;;;;;24.42;15.00;;;7.00;99.90;;;;;;5094232;28;20227;-68
2021/05/02 04:31:28;;;;;;;24.23;14.38;;;7.00;99.90;;;;;;5094222;28;20578;-67
2021/05/02 04:33:55;;;;;;;27.95;15.57;;;7.00;99.90;;;;;;5093778;28;20191;-67
2021/05/02 04:36:22;;;;;;;26.05;17.33;;;7.00;99.90;;;;;;5093246;28;20226;-68
2021/05/02 04:38:50;;;;;;;22.52;15.20;;;7.00;99.90;;;;;;5093107;28;20214;-65
2021/05/02 04:41:17;;;;;;;30.00;19.17;;;7.10;99.90;;;;;;5093035;28;20184;-67
2021/05/02 04:43:44;;;;;;;22.15;13.63;;;7.10;99.90;;;;;;5093124;28;20198;-66
2021/05/02 04:46:11;;;;;;;33.20;15.35;;;7.10;99.90;;;;;;5093243;28;20210;-66
2021/05/02 04:48:40;;;;;;;27.15;18.50;;;7.10;99.90;;;;;;5092878;28;20203;-66
2021/05/02 04:51:08;;;;;;;24.13;15.32;;;7.10;99.90;;;;;;5092865;28;20179;-67
2021/05/02 04:53:35;;;;;;;28.02;16.58;;;7.20;99.90;;;;;;5092987;28;20544;-66
2021/05/02 04:56:04;;;;;;;29.05;16.50;;;7.30;99.90;;;;;;5093060;28;20168;-69
2021/05/02 04:58:31;;;;;;;25.08;13.90;;;7.20;99.90;;;;;;5093488;28;20203;-67
2021/05/02 05:00:58;;;;;;;19.77;12.35;;;7.30;99.90;;;;;;5093107;28;20260;-66
2021/05/02 05:03:25;;;;;;;19.70;13.70;;;7.30;99.90;;;;;;5092738;28;20640;-67
2021/05/02 05:05:52;;;;;;;31.75;14.23;;;7.30;99.90;;;;;;5092420;28;20207;-70
2021/05/02 05:08:20;;;;;;;24.30;15.70;;;7.40;99.90;;;;;;5092456;28;20203;-66
2021/05/02 05:10:47;;;;;;;29.92;13.15;;;7.50;99.90;;;;;;5092626;28;20204;-68
2021/05/02 05:13:15;;;;;;;25.85;13.18;;;7.50;99.90;;;;;;5092504;28;20183;-67
2021/05/02 05:15:42;;;;;;;25.58;15.73;;;7.50;99.90;;;;;;5092480;28;20172;-67
2021/05/02 05:18:09;;;;;;;22.60;16.45;;;7.40;99.90;;;;;;5092303;28;20703;-68
2021/05/02 05:20:37;;;;;;;21.60;13.98;;;7.40;99.90;;;;;;5092214;28;20180;-70
2021/05/02 05:23:04;;;;;;;21.48;15.63;;;7.50;99.90;;;;;;5092373;28;20215;-66
2021/05/02 05:25:31;;;;;;;30.20;16.58;;;7.60;99.90;;;;;;5092194;28;20207;-70
2021/05/02 05:27:58;;;;;;;24.48;13.82;;;7.60;99.90;;;;;;5092255;28;20282;-67
2021/05/02 05:30:26;;;;;;;16.33;12.00;;;7.60;99.90;;;;;;5092215;28;20219;-67
2021/05/02 05:33:01;;;;;;;25.95;15.68;;;7.60;99.90;;;;;;5073933;28;20184;-68
2021/05/02 05:35:28;;;;;;;25.25;12.18;;;7.70;99.90;;;;;;5092032;28;20258;-68
2021/05/02 05:37:55;;;;;;;23.83;14.35;;;7.60;99.90;;;;;;5090870;28;20218;-72
2021/05/02 05:40:23;;;;;;;24.33;13.27;;;7.60;99.90;;;;;;5073920;28;20198;-67
2021/05/02 05:42:51;;;;;;;23.42;14.63;;;7.50;99.90;;;;;;5092326;28;20176;-67
2021/05/02 05:45:19;;;;;;;28.77;12.70;;;7.50;99.90;;;;;;5091976;28;20660;-67
2021/05/02 05:47:47;;;;;;;20.65;15.75;;;7.50;99.90;;;;;;5092244;28;20243;-67
2021/05/02 05:50:15;;;;;;;25.40;15.57;;;7.60;99.90;;;;;;5092320;28;20172;-66
2021/05/02 05:52:43;;;;;;;20.42;14.95;;;7.60;99.90;;;;;;5092300;28;20191;-67
2021/05/02 05:55:11;;;;;;;21.63;14.77;;;7.70;99.90;;;;;;5091833;28;20178;-67
2021/05/02 05:57:39;;;;;;;23.05;11.95;;;7.80;99.90;;;;;;5091799;28;20266;-68
2021/05/02 06:00:09;;;;;;;20.17;12.57;;;7.90;99.90;;;;;;5091735;28;20171;-68
2021/05/02 06:02:43;;;;;;;26.10;16.60;;;7.80;99.90;;;;;;5091568;28;20171;-67
2021/05/02 06:05:12;;;;;;;50.05;34.30;;;7.90;99.90;;;;;;5091470;28;20210;-70
2021/05/02 06:07:39;;;;;;;32.88;29.10;;;7.90;99.90;;;;;;5091695;28;20167;-67
2021/05/02 06:10:07;;;;;;;29.05;25.95;;;7.90;99.90;;;;;;5091842;28;20175;-68
2021/05/02 06:12:35;;;;;;;27.40;15.23;;;8.00;99.90;;;;;;5073453;28;20186;-67
2021/05/02 06:15:02;;;;;;;24.15;18.88;;;8.10;99.90;;;;;;5091387;28;20191;-73
2021/05/02 06:17:29;;;;;;;23.30;13.32;;;8.10;99.90;;;;;;5091422;28;20193;-67
2021/05/02 06:19:57;;;;;;;19.17;13.18;;;8.10;99.90;;;;;;5091052;28;20219;-67
2021/05/02 06:22:25;;;;;;;20.55;14.07;;;8.10;99.90;;;;;;5091139;28;20270;-66
2021/05/02 06:24:52;;;;;;;24.50;14.10;;;8.10;99.90;;;;;;5091741;28;20567;-70
2021/05/02 06:27:19;;;;;;;25.40;15.32;;;8.20;99.90;;;;;;5073796;28;20192;-70
2021/05/02 06:29:46;;;;;;;20.08;12.40;;;8.20;99.90;;;;;;5092109;28;20210;-65
2021/05/02 06:32:13;;;;;;;19.17;12.35;;;8.30;99.90;;;;;;5092362;28;20190;-68
2021/05/02 06:34:40;;;;;;;25.95;17.70;;;8.20;99.90;;;;;;5092559;28;20168;-69
2021/05/02 06:37:08;;;;;;;19.45;12.63;;;8.30;99.90;;;;;;5105165;22;20171;-68
2021/05/02 06:39:36;;;;;;;68.43;36.85;;;8.30;99.90;;;;;;5079532;28;20204;-70
2021/05/02 06:42:04;;;;;;;28.50;14.45;;;8.40;99.90;;;;;;5090531;28;20261;-69
2021/05/02 06:44:34;;;;;;;27.17;16.52;;;8.50;99.90;;;;;;5091438;28;20595;-71
2021/05/02 06:47:01;;;;;;;25.42;14.88;;;8.60;99.90;;;;;;5090300;28;20191;-70
2021/05/02 06:49:29;;;;;;;15.55;13.88;;;8.60;99.90;;;;;;5089985;28;20211;-70
2021/05/02 06:51:58;;;;;;;16.77;11.10;;;8.50;99.90;;;;;;5090413;28;20187;-69
2021/05/02 06:54:26;;;;;;;20.20;13.75;;;8.50;99.90;;;;;;5072282;28;20187;-70
2021/05/02 06:56:54;;;;;;;14.32;11.40;;;8.40;99.90;;;;;;5088660;28;20195;-71
2021/05/02 06:59:21;;;;;;;18.42;13.00;;;8.60;99.90;;;;;;5072160;28;20303;-69
2021/05/02 07:01:48;;;;;;;21.20;12.63;;;8.70;99.90;;;;;;5090165;28;20179;-69
2021/05/02 07:04:16;;;;;;;20.30;12.93;;;8.90;99.90;;;;;;5090192;28;20178;-69
2021/05/02 07:06:43;;;;;;;21.80;11.52;;;9.00;99.90;;;;;;5090410;28;20231;-70
2021/05/02 07:09:10;;;;;;;21.73;13.90;;;9.00;99.90;;;;;;5072946;28;20306;-69
2021/05/02 07:11:37;;;;;;;18.00;12.45;;;9.10;99.90;;;;;;5090282;28;20179;-70
2021/05/02 07:14:05;;;;;;;18.05;12.40;;;9.10;99.90;;;;;;5072459;28;20190;-69
2021/05/02 07:16:32;;;;;;;19.50;13.10;;;9.10;99.90;;;;;;5091318;28;20179;-70
2021/05/02 07:19:01;;;;;;;18.88;10.95;;;9.00;99.90;;;;;;5065438;28;20330;-70
2021/05/02 07:21:28;;;;;;;18.33;12.18;;;9.00;99.90;;;;;;5061376;28;20196;-69
2021/05/02 07:23:55;;;;;;;11.90;9.70;;;9.00;99.90;;;;;;5057040;28;20191;-70
2021/05/02 07:26:23;;;;;;;24.08;11.70;;;9.10;99.90;;;;;;5059443;28;20227;-70
2021/05/02 07:28:51;;;;;;;14.52;12.73;;;9.20;99.90;;;;;;5058763;28;20219;-70
2021/05/02 07:31:19;;;;;;;23.83;12.70;;;9.20;99.90;;;;;;5056608;28;20192;-69
2021/05/02 07:33:47;;;;;;;20.23;14.45;;;9.10;99.90;;;;;;5053558;28;20189;-69
2021/05/02 07:36:15;;;;;;;19.25;13.18;;;9.20;99.90;;;;;;5049785;28;20196;-70
2021/05/02 07:38:43;;;;;;;16.70;11.50;;;9.20;99.90;;;;;;5049839;28;20213;-70
2021/05/02 07:41:11;;;;;;;21.08;12.65;;;9.40;99.90;;;;;;5049968;28;20200;-70
2021/05/02 07:43:39;;;;;;;11.38;9.38;;;9.30;99.90;;;;;;5050119;28;20185;-70
2021/05/02 07:46:07;;;;;;;20.05;10.82;;;9.30;99.90;;;;;;5049675;28;20584;-70
2021/05/02 07:48:36;;;;;;;16.25;11.98;;;9.30;99.90;;;;;;5049640;28;20240;-71
2021/05/02 07:51:04;;;;;;;19.48;10.93;;;9.40;99.90;;;;;;5049754;28;20177;-68
2021/05/02 07:53:31;;;;;;;15.30;10.07;;;9.30;99.90;;;;;;5049261;28;20177;-70
2021/05/02 07:55:58;;;;;;;16.35;11.50;;;9.30;99.90;;;;;;5049803;28;20235;-69
2021/05/02 07:58:25;;;;;;;15.60;11.82;;;9.30;99.90;;;;;;5049468;28;20972;-69
2021/05/02 08:00:53;;;;;;;17.33;12.00;;;9.40;99.90;;;;;;5072366;28;20543;-70
2021/05/02 08:03:20;;;;;;;14.65;10.27;;;9.40;99.90;;;;;;5072931;28;20270;-69
2021/05/02 08:05:48;;;;;;;16.45;11.65;;;9.20;99.90;;;;;;5069104;28;20251;-69
2021/05/02 08:08:15;;;;;;;16.75;12.02;;;9.30;99.90;;;;;;5037712;28;20217;-69
2021/05/02 08:10:43;;;;;;;18.45;11.32;;;9.20;99.90;;;;;;5093946;28;20422;-69
2021/05/02 08:13:10;;;;;;;27.75;12.73;;;9.00;99.90;;;;;;5094907;28;20213;-69
2021/05/02 08:15:37;;;;;;;15.20;10.55;;;9.00;99.90;;;;;;5093585;28;20663;-69
2021/05/02 08:18:05;;;;;;;18.05;11.82;;;8.90;99.90;;;;;;5094053;28;20199;-69
2021/05/02 08:20:32;;;;;;;16.83;10.55;;;8.90;99.90;;;;;;5093570;28;20188;-70
2021/05/02 08:23:00;;;;;;;19.52;12.90;;;9.00;99.90;;;;;;5093731;28;20287;-69
2021/05/02 08:25:27;;;;;;;16.30;11.52;;;8.90;99.90;;;;;;5093307;28;20652;-69
2021/05/02 08:27:56;;;;;;;17.13;10.88;;;8.80;99.90;;;;;;5093625;28;20290;-70
2021/05/02 08:30:23;;;;;;;19.02;13.05;;;8.90;99.90;;;;;;5093218;28;20609;-69
2021/05/02 08:32:51;;;;;;;18.75;11.68;;;9.00;99.90;;;;;;5093692;28;20685;-70
2021/05/02 08:35:18;;;;;;;16.55;11.75;;;8.80;99.90;;;;;;5094317;28;20687;-70
2021/05/02 08:37:48;;;;;;;22.73;14.70;;;8.70;99.90;;;;;;5093124;28;20227;-70
2021/05/02 08:40:16;;;;;;;17.52;13.05;;;8.80;99.90;;;;;;5075513;28;20191;-69
2021/05/02 08:42:43;;;;;;;18.50;14.10;;;8.90;99.90;;;;;;5093499;28;20680;-69
2021/05/02 08:45:11;;;;;;;16.58;12.40;;;9.00;99.90;;;;;;5093697;28;20210;-68
2021/05/02 08:47:38;;;;;;;14.57;12.40;;;9.10;99.90;;;;;;5093452;28;20191;-69
2021/05/02 08:50:07;;;;;;;21.02;16.05;;;9.10;99.90;;;;;;5093817;28;20176;-69
2021/05/02 08:52:35;;;;;;;22.65;16.30;;;9.00;99.90;;;;;;5093952;28;20183;-71
2021/05/02 08:55:06;;;;;;;21.23;12.65;;;9.10;99.90;;;;;;5093899;28;20175;-69
2021/05/02 08:57:34;;;;;;;20.38;13.82;;;9.10;99.90;;;;;;5092468;28;20176;-69
2021/05/02 09:00:03;;;;;;;27.38;15.25;;;9.20;99.90;;;;;;5074637;28;20191;-69
2021/05/02 09:02:31;;;;;;;15.75;13.10;;;9.40;99.90;;;;;;5074416;28;20743;-70
2021/05/02 09:05:02;;;;;;;26.90;14.75;;;9.40;99.90;;;;;;5092341;28;20207;-70
2021/05/02 09:07:40;;;;;;;28.40;18.15;;;9.30;99.90;;;;;;5093224;28;20270;-69
2021/05/02 09:10:08;;;;;;;21.05;14.88;;;9.30;99.90;;;;;;5093602;28;20191;-70
2021/05/02 09:12:36;;;;;;;25.95;15.35;;;9.10;99.90;;;;;;5093231;28;20191;-69
2021/05/02 09:15:08;;;;;;;28.30;17.30;;;9.00;99.90;;;;;;5093253;28;20230;-69
2021/05/02 09:17:50;;;;;;;26.58;17.02;;;9.00;99.90;;;;;;5093579;28;20214;-70
2021/05/02 09:20:42;;;;;;;153.65;87.07;;;9.10;99.90;;;;;;5075833;28;20202;-69
2021/05/02 09:23:14;;;;;;;233.20;126.10;;;9.40;99.90;;;;;;5054123;28;20177;-68
2021/05/02 09:25:49;;;;;;;62.35;45.03;;;9.40;99.90;;;;;;5036808;28;20780;-69
2021/05/02 09:28:19;;;;;;;41.22;29.73;;;9.50;99.90;;;;;;5054778;28;20204;-71
2021/05/02 09:31:05;;;;;;;27.60;19.77;;;9.40;99.90;;;;;;5062809;28;20188;-70
2021/05/02 09:33:33;;;;;;;28.02;23.85;;;9.50;99.90;;;;;;5072402;28;20219;-69
2021/05/02 09:36:01;;;;;;;26.42;16.13;;;9.70;99.90;;;;;;5066452;28;20252;-69
2021/05/02 09:38:30;;;;;;;26.42;17.17;;;9.80;99.90;;;;;;5071273;28;20216;-69
2021/05/02 09:41:00;;;;;;;21.55;19.00;;;9.90;99.90;;;;;;5071911;28;20300;-70
2021/05/02 09:43:40;;;;;;;31.83;22.45;;;10.00;99.90;;;;;;5072710;28;20191;-69
2021/05/02 09:46:26;;;;;;;23.90;15.77;;;10.20;99.90;;;;;;5072713;28;20258;-70
2021/05/02 09:49:17;;;;;;;19.48;15.05;;;10.30;99.90;;;;;;5072263;28;20295;-70
2021/05/02 09:51:46;;;;;;;24.60;13.20;;;10.40;99.90;;;;;;5072207;28;20518;-69
2021/05/02 09:54:16;;;;;;;18.25;13.23;;;10.50;99.90;;;;;;5072000;28;20585;-69
2021/05/02 09:56:46;;;;;;;20.02;13.32;;;10.60;99.90;;;;;;5072215;28;20656;-71
2021/05/02 09:59:23;;;;;;;20.05;13.60;;;10.70;99.90;;;;;;5072179;28;20207;-71
2021/05/02 10:02:27;;;;;;;24.85;15.50;;;10.70;99.90;;;;;;5072361;28;20267;-71
2021/05/02 10:04:57;;;;;;;21.30;12.02;;;10.80;99.90;;;;;;5072313;28;20187;-70
2021/05/02 10:07:26;;;;;;;14.77;11.77;;;10.80;99.90;;;;;;5072259;28;20183;-70
2021/05/02 10:09:54;;;;;;;16.45;11.73;;;10.90;99.90;;;;;;5072390;28;21344;-69
2021/05/02 10:12:22;;;;;;;13.35;11.48;;;10.80;99.90;;;;;;5071908;28;20195;-70
2021/05/02 10:14:51;;;;;;;20.08;13.63;;;10.80;99.90;;;;;;5072161;28;20256;-70
2021/05/02 10:17:19;;;;;;;16.27;11.35;;;10.80;99.90;;;;;;5072495;28;20821;-69
2021/05/02 10:19:46;;;;;;;16.63;11.65;;;10.90;99.90;;;;;;5071908;28;20191;-70
2021/05/02 10:22:17;;;;;;;18.90;12.80;;;11.00;99.90;;;;;;5072942;28;20188;-70
2021/05/02 10:24:44;;;;;;;15.67;11.27;;;11.00;99.90;;;;;;5073919;28;20270;-70
2021/05/02 10:27:13;;;;;;;17.17;11.98;;;10.90;99.90;;;;;;5072210;28;20499;-70
2021/05/02 10:29:49;;;;;;;14.53;11.10;;;10.90;99.90;;;;;;5068286;28;20209;-70
2021/05/02 10:32:20;;;;;;;17.33;12.30;;;11.10;99.90;;;;;;5066035;28;20484;-70
2021/05/02 10:34:49;;;;;;;17.90;11.60;;;11.40;99.90;;;;;;5053232;28;20250;-70
2021/05/02 10:37:34;;;;;;;20.90;13.50;;;11.60;99.90;;;;;;5048520;28;20925;-70
2021/05/02 10:40:06;;;;;;;18.80;10.30;;;11.80;99.90;;;;;;5052008;28;20477;-70
2021/05/02 10:42:47;;;;;;;16.10;11.00;;;11.70;99.90;;;;;;5052568;28;20504;-70
2021/05/02 10:45:41;;;;;;;15.77;11.87;;;11.80;99.90;;;;;;5053656;28;20407;-72
2021/05/02 10:48:36;;;;;;;15.07;11.07;;;11.80;99.90;;;;;;5054119;28;20955;-71
2021/05/02 10:51:32;;;;;;;18.27;12.73;;;11.70;99.90;;;;;;5053721;28;20415;-71
2021/05/02 10:54:13;;;;;;;14.20;10.43;;;11.50;99.90;;;;;;4988317;28;20443;-69
2021/05/02 10:56:52;;;;;;;12.00;9.87;;;11.40;99.90;;;;;;5051564;28;20477;-69
2021/05/02 10:59:21;;;;;;;18.37;10.70;;;11.20;99.90;;;;;;5051886;28;20413;-71
2021/05/02 11:01:49;;;;;;;15.80;12.07;;;11.30;99.90;;;;;;5051272;28;20806;-70
2021/05/02 11:04:17;;;;;;;17.38;11.55;;;11.20;99.90;;;;;;5051280;28;20789;-71
2021/05/02 11:06:53;;;;;;;15.95;11.05;;;11.30;99.90;;;;;;5051425;28;20295;-71
2021/05/02 11:09:28;;;;;;;14.50;10.40;;;11.50;99.90;;;;;;5033187;28;20754;-71
2021/05/02 11:11:57;;;;;;;15.50;11.30;;;11.30;99.90;;;;;;5051187;28;20421;-69
2021/05/02 11:14:34;;;;;;;14.23;8.93;;;11.40;99.90;;;;;;5051477;28;20398;-70
2021/05/02 11:17:31;;;;;;;17.37;12.40;;;11.50;99.90;;;;;;5033041;28;20405;-73
2021/05/02 11:20:00;;;;;;;13.57;10.20;;;11.80;99.90;;;;;;5051188;28;20452;-70
2021/05/02 11:22:29;;;;;;;17.37;11.37;;;11.90;99.90;;;;;;5051063;28;20390;-70
2021/05/02 11:25:00;;;;;;;14.17;11.77;;;12.00;99.90;;;;;;5051307;28;20448;-69
2021/05/02 11:27:48;;;;;;;15.67;9.70;;;11.90;99.90;;;;;;5050846;28;20485;-70
2021/05/02 11:30:19;;;;;;;17.40;12.27;;;11.70;99.90;;;;;;5051080;28;20448;-71
2021/05/02 11:32:48;;;;;;;16.63;11.27;;;11.80;99.90;;;;;;5032227;28;20439;-70
2021/05/02 11:35:19;;;;;;;15.00;10.97;;;11.80;99.90;;;;;;5055557;28;20427;-70
2021/05/02 11:37:53;;;;;;;13.07;9.50;;;11.60;99.90;;;;;;5073682;28;20445;-70
2021/05/02 11:40:38;;;;;;;18.83;11.73;;;11.60;99.90;;;;;;5072927;28;20408;-70
2021/05/02 11:43:08;;;;;;;14.20;9.23;;;11.60;99.90;;;;;;5069336;28;20433;-70
2021/05/02 11:45:46;;;;;;;10.20;8.23;;;11.40;99.90;;;;;;5055513;28;20432;-71
2021/05/02 11:48:26;;;;;;;14.93;10.60;;;11.50;99.90;;;;;;5073451;28;20984;-68
2021/05/02 11:50:58;;;;;;;15.53;12.33;;;11.40;99.90;;;;;;5075230;28;20428;-70
2021/05/02 11:53:41;;;;;;;16.53;12.13;;;11.40;99.90;;;;;;5065270;28;20474;-70
2021/05/02 11:56:17;;;;;;;17.40;10.30;;;11.60;99.90;;;;;;5082062;28;20899;-69
2021/05/02 11:58:45;;;;;;;20.43;11.93;;;11.80;99.90;;;;;;5092716;28;20445;-70
2021/05/02 12:01:21;;;;;;;17.87;12.80;;;11.70;99.90;;;;;;5085509;28;20817;-73
2021/05/02 12:03:49;;;;;;;22.17;13.17;;;11.70;99.90;;;;;;5048314;28;20461;-69
2021/05/02 12:06:28;;;;;;;16.37;10.23;;;11.90;99.90;;;;;;5053564;28;20472;-70
2021/05/02 12:08:58;;;;;;;16.47;11.80;;;12.10;99.90;;;;;;5053315;28;20453;-69
2021/05/02 12:11:26;;;;;;;16.20;11.63;;;11.90;99.90;;;;;;5035451;28;20425;-70
2021/05/02 12:13:56;;;;;;;15.30;10.83;;;11.90;99.90;;;;;;5053084;28;20488;-69
2021/05/02 12:16:25;;;;;;;15.70;11.67;;;12.00;99.90;;;;;;5053084;28;20420;-70
2021/05/02 12:19:01;;;;;;;19.13;12.17;;;12.10;99.90;;;;;;5054207;28;20438;-70
2021/05/02 12:21:32;;;;;;;13.10;9.57;;;11.90;99.90;;;;;;5036650;28;20472;-71
2021/05/02 12:24:13;;;;;;;19.50;11.50;;;12.20;99.90;;;;;;5054259;28;20485;-71
2021/05/02 12:26:43;;;;;;;19.23;11.57;;;12.10;99.90;;;;;;5054571;28;20468;-70
2021/05/02 12:29:18;;;;;;;15.70;10.37;;;12.30;99.90;;;;;;5053696;28;20439;-70
2021/05/02 12:31:52;;;;;;;14.37;9.87;;;12.20;99.90;;;;;;5041362;28;20442;-71
2021/05/02 12:34:24;;;;;;;12.63;10.10;;;12.30;99.90;;;;;;5065668;28;20473;-71
2021/05/02 12:37:03;;;;;;;14.60;10.60;;;12.20;99.90;;;;;;5076039;28;20451;-70
2021/05/02 12:39:32;;;;;;;20.03;11.17;;;12.30;99.90;;;;;;5025137;28;20452;-78
2021/05/02 12:42:00;;;;;;;10.70;9.00;;;12.60;99.90;;;;;;5041057;28;20425;-77
2021/05/02 12:44:28;;;;;;;15.93;10.50;;;12.70;99.90;;;;;;5038833;28;20422;-78
2021/05/02 12:46:57;;;;;;;12.43;9.90;;;12.80;99.90;;;;;;5039374;28;20570;-78
2021/05/02 12:49:27;;;;;;;20.93;9.87;;;13.00;99.90;;;;;;5039431;28;20379;-79
2021/05/02 12:51:56;;;;;;;12.73;10.07;;;12.60;99.90;;;;;;5039425;28;20435;-79